Dyckesville, Wisconsin
Current Conditions -  °F | °C
As of 10:53 AM on Friday 28 Nov 2014 (Local Time) from KGRB Reporting Station
Light Snow Light Snow  
Wind Chill:   Ceiling: 2400
Heat Index: 18°   Visibility: 2mi
Dew Point: 14°   Wind: 9mph
Humidity: 84%   Direction: 160°SSE
Pressure: 30.14"   Gusts: NA
Location:  44.5424°N, 87.7165°W
Report Text: KGRB 281653Z 16008KT 2SM -SN BR BKN024 BKN033 OVC042 M08/M10 A3014 RMK AO2 SLP222 P0001 T10781100
Loading
Personal Weather Stations






























Interactive Weather Map New forecast layout! Learn more

10-Day Weather Forecast

Advertisements
Track Severe Weather on mobile